createdAt,value
2018-08-28T00:00:31.599Z,101024.84
2018-08-28T00:03:35.933Z,101027.48
2018-08-28T00:06:40.268Z,101034.91
2018-08-28T00:09:44.590Z,101033.64
2018-08-28T00:12:48.909Z,101041.06
2018-08-28T00:15:53.371Z,101043.70
2018-08-28T00:18:57.757Z,101038.05
2018-08-28T00:22:01.874Z,101043.23
2018-08-28T00:25:06.194Z,101046.72
2018-08-28T00:28:10.476Z,101050.20
2018-08-28T00:31:14.771Z,101060.16
2018-08-28T00:34:19.141Z,101067.95
2018-08-28T00:37:23.556Z,101071.36
2018-08-28T00:40:27.905Z,101073.47
2018-08-28T00:43:32.169Z,101076.44
2018-08-28T00:46:36.523Z,101079.85
2018-08-28T00:49:40.789Z,101084.99
2018-08-28T00:52:44.868Z,101092.38
2018-08-28T00:55:49.177Z,101092.81
2018-08-28T00:58:53.458Z,101096.29
2018-08-28T01:01:57.809Z,101098.90
2018-08-28T01:05:02.113Z,101095.42
2018-08-28T01:08:06.572Z,101100.12
2018-08-28T01:11:10.888Z,101090.06
2018-08-28T01:14:15.153Z,101107.83
2018-08-28T01:17:19.519Z,101097.84
2018-08-28T01:20:23.854Z,101108.27
2018-08-28T01:23:28.179Z,101111.70
2018-08-28T01:26:32.600Z,101116.48
2018-08-28T01:29:36.996Z,101123.00
2018-08-28T01:32:41.314Z,101120.39
2018-08-28T01:35:45.616Z,101119.60
2018-08-28T01:38:49.895Z,101123.99
2018-08-28T01:41:54.180Z,101130.16
2018-08-28T01:44:58.476Z,101134.17
2018-08-28T01:48:02.765Z,101129.94
2018-08-28T01:51:07.236Z,101132.70
2018-08-28T01:54:12.086Z,101142.84
2018-08-28T01:57:16.405Z,101139.06
2018-08-28T02:00:20.801Z,101144.92
2018-08-28T02:03:26.911Z,101150.71
2018-08-28T02:06:32.069Z,101145.22
2018-08-28T02:09:36.999Z,101151.45
2018-08-28T02:12:49.554Z,101142.81
2018-08-28T02:15:53.881Z,101147.19
2018-08-28T02:18:58.664Z,101155.08
2018-08-28T02:22:03.013Z,101161.64
2018-08-28T02:25:07.820Z,101161.64
2018-08-28T02:28:12.027Z,101158.65
2018-08-28T02:31:16.192Z,101158.64
2018-08-28T02:34:20.518Z,101169.16
2018-08-28T02:37:24.842Z,101177.02
2018-08-28T02:40:29.162Z,101174.93
2018-08-28T02:43:33.458Z,101173.63
2018-08-28T02:46:38.371Z,101178.08
2018-08-28T02:49:42.718Z,101174.19
2018-08-28T02:52:46.839Z,101177.70
2018-08-28T02:55:51.157Z,101184.25
2018-08-28T02:58:55.463Z,101184.23
2018-08-28T03:01:59.801Z,101194.22
2018-08-28T03:05:04.092Z,101198.00
2018-08-28T03:08:08.435Z,101197.43
2018-08-28T03:11:12.800Z,101203.78
2018-08-28T03:14:17.078Z,101201.91
2018-08-28T03:17:21.402Z,101206.13
2018-08-28T03:20:25.731Z,101211.66
2018-08-28T03:23:30.033Z,101217.60
2018-08-28T03:26:34.375Z,101221.84
2018-08-28T03:29:38.652Z,101223.44
2018-08-28T03:32:42.765Z,101217.23
2018-08-28T03:35:47.140Z,101223.28
2018-08-28T03:38:51.474Z,101221.86
2018-08-28T03:41:55.864Z,101227.00
2018-08-28T03:45:00.172Z,101227.39
2018-08-28T03:48:04.317Z,101227.70
2018-08-28T03:51:09.007Z,101233.70
2018-08-28T03:54:13.373Z,101246.19
2018-08-28T03:57:17.790Z,101247.00
2018-08-28T04:00:22.176Z,101242.14
2018-08-28T04:03:26.289Z,101250.30
2018-08-28T04:06:30.835Z,101257.55
2018-08-28T04:09:35.155Z,101248.25
2018-08-28T04:12:39.634Z,101258.10
2018-08-28T04:15:43.867Z,101257.13
2018-08-28T04:18:48.229Z,101266.59
2018-08-28T04:21:52.545Z,101272.61
2018-08-28T04:24:56.830Z,101268.56
2018-08-28T04:28:01.159Z,101282.02
2018-08-28T04:31:05.492Z,101281.91
2018-08-28T04:34:09.761Z,101277.53
2018-08-28T04:37:14.013Z,101280.95
2018-08-28T04:40:18.408Z,101287.51
2018-08-28T04:43:22.514Z,101288.44
2018-08-28T04:46:26.615Z,101289.73
2018-08-28T04:49:30.929Z,101295.38
2018-08-28T04:52:35.535Z,101291.86
2018-08-28T04:55:39.801Z,101294.08
2018-08-28T04:58:44.179Z,101306.77
2018-08-28T05:01:48.522Z,101306.34
2018-08-28T05:04:52.617Z,101308.60
2018-08-28T05:07:56.773Z,101312.61
2018-08-28T05:11:00.879Z,101314.41
2018-08-28T05:14:05.296Z,101319.29
2018-08-28T05:17:09.590Z,101324.98
2018-08-28T05:20:13.938Z,101325.03
2018-08-28T05:23:18.232Z,101329.86
2018-08-28T05:26:22.567Z,101336.86
2018-08-28T05:29:26.901Z,101335.23
2018-08-28T05:32:31.075Z,101334.41
2018-08-28T05:35:35.338Z,101333.64
2018-08-28T05:38:39.665Z,101332.47
2018-08-28T05:41:44.310Z,101332.58
2018-08-28T05:44:48.577Z,101341.02
2018-08-28T05:47:52.925Z,101345.07
2018-08-28T05:50:57.182Z,101347.42
2018-08-28T05:54:01.539Z,101350.27
2018-08-28T05:57:05.541Z,101349.29
2018-08-28T06:00:09.938Z,101351.36
2018-08-28T06:03:14.391Z,101348.07
2018-08-28T06:06:18.826Z,101350.88
2018-08-28T06:09:23.132Z,101352.76
2018-08-28T06:12:27.460Z,101351.13
2018-08-28T06:15:31.478Z,101355.69
2018-08-28T06:18:35.786Z,101355.80
2018-08-28T06:21:40.085Z,101359.84
2018-08-28T06:24:44.116Z,101359.47
2018-08-28T06:27:48.273Z,101366.63
2018-08-28T06:30:52.560Z,101365.50
2018-08-28T06:33:56.769Z,101370.44
2018-08-28T06:37:00.996Z,101371.42
2018-08-28T06:40:05.345Z,101365.40
2018-08-28T06:43:09.651Z,101373.70
2018-08-28T06:46:13.980Z,101377.66
2018-08-28T06:49:18.097Z,101382.48
2018-08-28T06:52:22.379Z,101378.61
2018-08-28T06:55:27.215Z,101378.71
2018-08-28T06:58:31.370Z,101372.30
2018-08-28T07:01:35.750Z,101375.47
2018-08-28T07:04:40.340Z,101384.27
2018-08-28T07:07:44.711Z,101384.36
2018-08-28T07:10:49.146Z,101384.33
2018-08-28T07:13:53.473Z,101389.66
2018-08-28T07:16:57.879Z,101397.22
2018-08-28T07:20:02.228Z,101400.34
2018-08-28T07:23:06.563Z,101403.92
2018-08-28T07:26:10.884Z,101398.73
2018-08-28T07:29:15.170Z,101409.73
2018-08-28T07:32:19.501Z,101402.80
2018-08-28T07:35:23.795Z,101403.27
2018-08-28T07:38:28.121Z,101402.00
2018-08-28T07:41:32.413Z,101413.89
2018-08-28T07:44:37.573Z,101410.41
2018-08-28T07:47:41.882Z,101413.06
2018-08-28T07:50:46.173Z,101416.59
2018-08-28T07:53:50.635Z,101419.67
2018-08-28T07:56:54.842Z,101420.09
2018-08-28T07:59:59.164Z,101423.61
2018-08-28T08:03:03.447Z,101427.98
2018-08-28T08:06:07.814Z,101425.81
2018-08-28T08:09:12.585Z,101428.89
2018-08-28T08:12:16.884Z,101432.38
2018-08-28T08:15:21.205Z,101437.64
2018-08-28T08:18:25.498Z,101440.27
2018-08-28T08:21:29.792Z,101445.52
2018-08-28T08:24:34.066Z,101443.74
2018-08-28T08:27:38.364Z,101450.33
2018-08-28T08:30:42.654Z,101447.72
2018-08-28T08:33:47.002Z,101444.22
2018-08-28T08:36:51.574Z,101452.54
2018-08-28T08:39:55.964Z,101462.19
2018-08-28T08:43:00.272Z,101458.25
2018-08-28T08:46:04.569Z,101457.34
2018-08-28T08:49:08.921Z,101459.50
2018-08-28T08:52:13.240Z,101460.82
2018-08-28T08:55:17.507Z,101472.62
2018-08-28T08:58:21.804Z,101474.80
2018-08-28T09:01:26.171Z,101470.41
2018-08-28T09:04:30.537Z,101476.08
2018-08-28T09:07:34.960Z,101477.36
2018-08-28T09:10:42.109Z,101479.89
2018-08-28T09:13:46.523Z,101479.81
2018-08-28T09:16:50.782Z,101481.23
2018-08-28T09:19:55.073Z,101477.36
2018-08-28T09:22:59.359Z,101482.99
2018-08-28T09:26:03.717Z,101479.47
2018-08-28T09:29:08.015Z,101480.27
2018-08-28T09:32:12.383Z,101489.84
2018-08-28T09:35:16.648Z,101490.61
2018-08-28T09:38:20.959Z,101485.36
2018-08-28T09:41:25.247Z,101495.11
2018-08-28T09:44:29.551Z,101495.53
2018-08-28T09:47:33.831Z,101486.02
2018-08-28T09:50:38.232Z,101489.46
2018-08-28T09:53:42.502Z,101487.61
2018-08-28T09:56:47.033Z,101485.73
2018-08-28T09:59:51.320Z,101487.98
2018-08-28T10:02:56.319Z,101489.23
2018-08-28T10:06:00.689Z,101496.67
2018-08-28T10:09:07.497Z,101501.90
2018-08-28T10:12:11.741Z,101499.62
2018-08-28T10:15:16.092Z,101507.08
2018-08-28T10:18:20.414Z,101505.38
2018-08-28T10:21:24.745Z,101504.41
2018-08-28T10:24:29.396Z,101508.72
2018-08-28T10:27:33.721Z,101511.98
2018-08-28T10:30:38.011Z,101517.52
2018-08-28T10:33:42.270Z,101523.71
2018-08-28T10:36:46.526Z,101518.47
2018-08-28T10:39:50.872Z,101518.05
2018-08-28T10:42:55.164Z,101523.86
2018-08-28T10:45:59.516Z,101514.84
2018-08-28T10:49:03.845Z,101520.53
2018-08-28T10:52:08.170Z,101522.23
2018-08-28T10:55:12.469Z,101528.58
2018-08-28T10:58:16.762Z,101534.94
2018-08-28T11:01:21.093Z,101533.72
2018-08-28T11:04:25.440Z,101539.56
2018-08-28T11:07:29.736Z,101540.07
2018-08-28T11:10:33.999Z,101547.98
2018-08-28T11:13:38.352Z,101545.77
2018-08-28T11:16:42.643Z,101549.33
2018-08-28T11:19:46.935Z,101556.37
2018-08-28T11:22:51.209Z,101557.97
2018-08-28T11:25:55.507Z,101564.86
2018-08-28T11:28:59.889Z,101565.83
2018-08-28T11:32:04.316Z,101566.47
2018-08-28T11:35:08.753Z,101565.98
2018-08-28T11:38:13.162Z,101573.65
2018-08-28T11:41:17.587Z,101572.64
2018-08-28T11:44:21.908Z,101576.77
2018-08-28T11:47:26.250Z,101569.68
2018-08-28T11:50:30.622Z,101573.77
2018-08-28T11:53:34.971Z,101571.68
2018-08-28T11:56:39.256Z,101571.55
2018-08-28T11:59:43.581Z,101579.28
2018-08-28T12:02:47.911Z,101576.91
2018-08-28T12:05:52.861Z,101579.66
2018-08-28T12:08:57.211Z,101583.33
2018-08-28T12:12:01.693Z,101586.06
2018-08-28T12:15:06.157Z,101578.98
2018-08-28T12:18:10.509Z,101580.01
2018-08-28T12:21:14.843Z,101577.67
2018-08-28T12:24:19.615Z,101579.73
2018-08-28T12:27:23.874Z,101579.70
2018-08-28T12:30:28.176Z,101585.39
2018-08-28T12:33:32.545Z,101581.94
2018-08-28T12:36:36.899Z,101576.75
2018-08-28T12:39:41.121Z,101588.65
2018-08-28T12:42:45.374Z,101586.89
2018-08-28T12:45:50.148Z,101585.70
2018-08-28T12:48:54.451Z,101586.17
2018-08-28T12:51:58.736Z,101591.12
2018-08-28T12:55:03.136Z,101590.72
2018-08-28T12:58:08.191Z,101594.10
2018-08-28T13:01:13.552Z,101584.44
2018-08-28T13:04:18.854Z,101590.91
2018-08-28T13:07:24.107Z,101595.75
2018-08-28T13:10:29.295Z,101596.37
2018-08-28T13:13:34.307Z,101596.11
2018-08-28T13:16:38.788Z,101595.31
2018-08-28T13:19:43.551Z,101597.70
2018-08-28T13:22:48.147Z,101592.54
2018-08-28T13:25:52.797Z,101599.67
2018-08-28T13:28:57.360Z,101596.67
2018-08-28T13:32:02.039Z,101593.33
2018-08-28T13:35:06.703Z,101594.59
2018-08-28T13:38:11.341Z,101590.63
2018-08-28T13:41:15.508Z,101593.09
2018-08-28T13:44:19.845Z,101597.88
2018-08-28T13:47:24.290Z,101596.45
2018-08-28T13:50:28.638Z,101599.61
2018-08-28T13:53:32.947Z,101595.23
2018-08-28T13:56:37.697Z,101601.95
2018-08-28T13:59:42.088Z,101599.63
2018-08-28T14:02:46.720Z,101609.34
2018-08-28T14:05:51.100Z,101604.95
2018-08-28T14:08:55.424Z,101604.86
2018-08-28T14:11:59.749Z,101612.75
2018-08-28T14:15:04.232Z,101623.39
2018-08-28T14:18:08.516Z,101619.95
2018-08-28T14:21:12.786Z,101621.30
2018-08-28T14:24:17.071Z,101618.25
2018-08-28T14:27:21.410Z,101623.36
2018-08-28T14:30:25.725Z,101627.34
2018-08-28T14:33:30.036Z,101621.35
2018-08-28T14:36:34.319Z,101621.37
2018-08-28T14:39:38.720Z,101622.25
2018-08-28T14:42:43.032Z,101624.38
2018-08-28T14:45:47.310Z,101620.86
2018-08-28T14:48:51.571Z,101619.03
2018-08-28T14:51:56.144Z,101619.42
2018-08-28T14:55:00.562Z,101621.32
2018-08-28T14:58:04.981Z,101617.81
2018-08-28T15:01:09.294Z,101618.21
2018-08-28T15:04:13.581Z,101618.21
2018-08-28T15:07:17.894Z,101619.11
2018-08-28T15:10:22.349Z,101611.70
2018-08-28T15:13:26.768Z,101609.87
2018-08-28T15:16:31.138Z,101609.41
2018-08-28T15:19:35.414Z,101607.69
2018-08-28T15:22:39.857Z,101614.28
2018-08-28T15:25:44.328Z,101613.44
2018-08-28T15:28:48.645Z,101613.31
2018-08-28T15:31:52.972Z,101618.64
2018-08-28T15:34:57.317Z,101613.39
2018-08-28T15:38:01.774Z,101613.44
2018-08-28T15:41:06.348Z,101620.50
2018-08-28T15:44:10.752Z,101615.70
2018-08-28T15:47:15.344Z,101622.24
2018-08-28T15:50:19.642Z,101620.00
2018-08-28T15:53:24.054Z,101623.14
2018-08-28T15:56:28.385Z,101619.16
2018-08-28T15:59:32.821Z,101621.87
2018-08-28T16:02:37.198Z,101616.59
2018-08-28T16:05:41.626Z,101611.77
2018-08-28T16:08:45.999Z,101611.75
2018-08-28T16:11:50.326Z,101615.28
2018-08-28T16:14:54.770Z,101614.02
2018-08-28T16:17:59.366Z,101613.64
2018-08-28T16:21:03.741Z,101611.93
2018-08-28T16:24:08.066Z,101609.34
2018-08-28T16:27:12.485Z,101614.59
2018-08-28T16:30:16.876Z,101615.94
2018-08-28T16:33:21.297Z,101615.52
2018-08-28T16:36:25.748Z,101619.05
2018-08-28T16:39:30.122Z,101618.20
2018-08-28T16:42:34.577Z,101619.09
2018-08-28T16:45:38.885Z,101616.87
2018-08-28T16:48:43.242Z,101623.47
2018-08-28T16:51:47.559Z,101623.91
2018-08-28T16:54:51.856Z,101619.98
2018-08-28T16:57:56.181Z,101619.97
2018-08-28T17:01:00.455Z,101624.36
2018-08-28T17:04:04.842Z,101623.03
2018-08-28T17:07:09.254Z,101630.08
2018-08-28T17:10:13.545Z,101627.88
2018-08-28T17:13:17.966Z,101628.75
2018-08-28T17:16:22.307Z,101623.94
2018-08-28T17:19:26.672Z,101626.58
2018-08-28T17:22:31.025Z,101630.06
2018-08-28T17:25:35.345Z,101633.14
2018-08-28T17:28:39.791Z,101633.16
2018-08-28T17:31:44.208Z,101630.49
2018-08-28T17:34:48.623Z,101630.94
2018-08-28T17:37:52.941Z,101627.88
2018-08-28T17:40:57.269Z,101626.14
2018-08-28T17:44:01.578Z,101626.58
2018-08-28T17:47:06.274Z,101625.23
2018-08-28T17:50:10.785Z,101634.88
2018-08-28T17:53:15.172Z,101630.06
2018-08-28T17:56:19.483Z,101633.13
2018-08-28T17:59:23.795Z,101630.06
2018-08-28T18:02:28.164Z,101637.51
2018-08-28T18:05:32.566Z,101637.05
2018-08-28T18:08:37.030Z,101643.63
2018-08-28T18:11:41.341Z,101639.66
2018-08-28T18:14:45.783Z,101640.08
2018-08-28T18:17:50.132Z,101647.48
2018-08-28T18:20:54.579Z,101646.58
2018-08-28T18:23:59.330Z,101647.02
2018-08-28T18:27:03.719Z,101653.98
2018-08-28T18:30:08.707Z,101660.08
2018-08-28T18:33:16.085Z,101661.41
2018-08-28T18:36:20.795Z,101657.01
2018-08-28T18:39:25.141Z,101663.11
2018-08-28T18:42:29.659Z,101667.46
2018-08-28T18:45:34.069Z,101662.17
2018-08-28T18:48:38.526Z,101670.89
2018-08-28T18:51:43.942Z,101669.58
2018-08-28T18:54:48.343Z,101671.75
2018-08-28T18:57:52.892Z,101667.78
2018-08-28T19:00:57.324Z,101674.33
2018-08-28T19:04:01.849Z,101669.94
2018-08-28T19:07:06.464Z,101672.11
2018-08-28T19:10:11.135Z,101670.75
2018-08-28T19:13:15.850Z,101672.08
2018-08-28T19:16:20.321Z,101671.61
2018-08-28T19:19:24.801Z,101663.75
2018-08-28T19:22:29.473Z,101669.84
2018-08-28T19:25:34.803Z,101665.89
2018-08-28T19:28:39.338Z,101666.31
2018-08-28T19:31:43.879Z,101666.70
2018-08-28T19:34:48.299Z,101661.00
2018-08-28T19:37:52.851Z,101669.70
2018-08-28T19:40:57.345Z,101666.64
2018-08-28T19:44:02.032Z,101664.00
2018-08-28T19:47:06.610Z,101660.05
2018-08-28T19:50:11.285Z,101656.06
2018-08-28T19:53:15.856Z,101659.58
2018-08-28T19:56:20.365Z,101659.13
2018-08-28T19:59:24.785Z,101654.30
2018-08-28T20:02:29.130Z,101657.34
2018-08-28T20:05:33.594Z,101659.48
2018-08-28T20:08:38.043Z,101655.09
2018-08-28T20:11:42.397Z,101659.47
2018-08-28T20:14:46.729Z,101654.22
2018-08-28T20:17:51.109Z,101653.33
2018-08-28T20:20:55.500Z,101646.75
2018-08-28T20:23:59.786Z,101647.17
2018-08-28T20:27:04.200Z,101646.70
2018-08-28T20:30:08.704Z,101644.95
2018-08-28T20:33:13.157Z,101647.97
2018-08-28T20:36:17.523Z,101647.03
2018-08-28T20:39:21.839Z,101642.13
2018-08-28T20:42:26.146Z,101641.66
2018-08-28T20:45:30.516Z,101642.48
2018-08-28T20:48:34.896Z,101643.27
2018-08-28T20:51:39.302Z,101634.89
2018-08-28T20:54:43.624Z,101631.38
2018-08-28T20:57:47.947Z,101638.34
2018-08-28T21:00:52.501Z,101637.47
2018-08-28T21:03:56.729Z,101636.19
2018-08-28T21:07:01.114Z,101633.56
2018-08-28T21:10:05.748Z,101630.48
2018-08-28T21:13:10.173Z,101628.23
2018-08-28T21:16:15.467Z,101626.05
2018-08-28T21:19:20.561Z,101630.36
2018-08-28T21:22:25.637Z,101633.84
2018-08-28T21:25:31.027Z,101630.28
2018-08-28T21:28:35.306Z,101638.92
2018-08-28T21:31:39.636Z,101631.91
2018-08-28T21:34:43.968Z,101627.98
2018-08-28T21:37:48.303Z,101625.83
2018-08-28T21:40:52.586Z,101619.27
2018-08-28T21:43:56.955Z,101617.41
2018-08-28T21:47:01.273Z,101623.28
2018-08-28T21:50:05.593Z,101621.30
2018-08-28T21:53:09.873Z,101622.41
2018-08-28T21:56:14.236Z,101618.34
2018-08-28T21:59:18.659Z,101620.05
2018-08-28T22:02:22.978Z,101617.72
2018-08-28T22:05:30.077Z,101623.27
2018-08-28T22:08:34.389Z,101624.35
2018-08-28T22:11:38.675Z,101626.33
2018-08-28T22:14:43.030Z,101630.13
2018-08-28T22:17:47.330Z,101622.72
2018-08-28T22:20:56.101Z,101619.23
2018-08-28T22:24:00.502Z,101621.73
2018-08-28T22:27:04.827Z,101621.94
2018-08-28T22:30:09.876Z,101624.81
2018-08-28T22:33:13.987Z,101625.94
2018-08-28T22:36:18.396Z,101633.23
2018-08-28T22:39:22.821Z,101634.94
2018-08-28T22:42:27.348Z,101632.32
2018-08-28T22:45:31.878Z,101633.23
2018-08-28T22:48:36.387Z,101635.36
2018-08-28T22:51:40.665Z,101631.35
2018-08-28T22:54:45.029Z,101641.33
2018-08-28T22:57:49.316Z,101639.53
2018-08-28T23:00:53.763Z,101644.70
2018-08-28T23:03:58.052Z,101639.38
2018-08-28T23:07:02.442Z,101638.89
2018-08-28T23:10:06.860Z,101642.67
2018-08-28T23:13:11.381Z,101643.00
2018-08-28T23:16:15.667Z,101638.26
2018-08-28T23:19:19.992Z,101635.17
2018-08-28T23:22:24.339Z,101629.02
2018-08-28T23:25:28.582Z,101624.17
2018-08-28T23:28:32.983Z,101631.10
2018-08-28T23:31:37.273Z,101626.70
2018-08-28T23:34:41.597Z,101626.14
2018-08-28T23:37:49.247Z,101629.97
2018-08-28T23:40:53.518Z,101634.69
2018-08-28T23:43:57.849Z,101630.23
2018-08-28T23:47:02.167Z,101622.31
2018-08-28T23:50:06.501Z,101629.80
2018-08-28T23:53:10.807Z,101626.37
2018-08-28T23:56:14.952Z,101619.52
2018-08-28T23:59:19.307Z,101625.72
